Latest Coastal Weather Observations for Roebourne Airport

IDW60701

Issued at 1:53 pm WST Monday 20 November 2017 (issued every 10 minutes, with the page automatically refreshed every 10 minutes)

About coastal observations | Map of coastal stations | Coastal observations for WA | Marine services | Other Formats
Station Details ID: 004090 Name: ROEBOURNE AERO Lat: -20.76 Lon: 117.16 Height: 10.7 m
Data from the previous 72 hours. | See also: Recent months at Roebourne Airport
Date/Time
WST
Temp
°C
Wind Pressure Rain since
9am
mm
Weather Cloud Vis
km
Sea
Height
m
Swell
Dir  Spd
kts
Gust
kts
hPa Trend Height
m
Period
s
Dir
20/01:30pm 37.6 NNW 15 21 1007.2 - 0.0 - - - - - - -
20/01:00pm 39.1 NW 14 20 1007.4 - 0.0 - - - - - - -
20/12:30pm 39.2 WNW 12 18 1007.6 - 0.0 - - - - - - -
20/12:00pm 38.5 WNW 10 17 1007.9 - 0.0 - - - - - - -
20/11:30am 38.7 WSW 7 14 1008.2 - 0.0 - - - - - - -
20/11:00am 37.3 W 9 13 1008.6 - 0.0 - - - - - - -
20/10:30am 36.3 WSW 9 16 1008.9 - 0.0 - - - - - - -
20/10:00am 34.8 WSW 9 15 1009.3 - 0.0 - - - - - - -
20/09:30am 34.7 WSW 9 13 1009.5 - 0.0 - - - - - - -
20/09:00am 33.1 SW 8 12 1009.6 - 0.0 - - - - - - -
20/08:30am 30.9 WSW 7 10 1010.0 - 0.0 - - - - - - -
20/08:00am 29.5 WSW 8 11 1010.2 - 0.0 - - - - - - -
20/07:30am 28.1 W 8 9 1010.2 - 0.0 - - - - - - -
20/07:00am 26.3 W 8 9 1010.1 - 0.0 - - - - - - -
20/06:30am 24.8 W 8 11 1010.0 - 0.0 - - - - - - -
20/06:00am 23.4 WSW 8 10 1009.8 - 0.0 - - - - - - -
20/05:30am 22.6 W 6 8 1009.5 - 0.0 - - - - - - -
20/05:00am 22.6 W 6 8 1009.3 - 0.0 - - - - - - -
20/04:30am 23.0 W 7 9 1009.2 - 0.0 - - - - - - -
20/04:00am 23.0 W 6 9 1009.2 - 0.0 - - - - - - -
20/03:30am 23.1 W 7 10 1009.0 - 0.0 - - - - - - -
20/03:00am 23.2 WSW 6 8 1008.7 - 0.0 - - - - - - -
20/02:30am 23.2 WNW 7 8 1008.9 - 0.0 - - - - - - -
20/02:00am 23.7 WSW 5 7 1008.9 - 0.0 - - - - - - -
20/01:30am 24.4 WSW 7 9 1008.8 - 0.0 - - - - - - -
20/01:00am 24.8 W 9 13 1008.8 - 0.0 - - - - - - -
20/12:30am 24.7 W 9 11 1008.9 - 0.0 - - - - - - -
20/12:00am 25.1 W 13 16 1009.3 - 0.0 - - - - - - -
 
Date/Time
WST
Temp
°C
Wind Pressure Rain since
9am
mm
Weather Cloud Vis
km
Sea
Height
m
Swell
Dir  Spd
kts
Gust
kts
hPa Trend Height
m
Period
s
Dir
19/11:30pm 25.1 W 9 11 1009.8 - 0.0 - - - - - - -
19/11:00pm 25.4 WNW 11 13 1010.1 - 0.0 - - - - - - -
19/10:30pm 25.6 WNW 9 12 1010.2 - 0.0 - - - - - - -
19/10:00pm 26.0 WNW 9 12 1010.1 - 0.0 - - - - - - -
19/09:30pm 26.3 WNW 11 14 1009.9 - 0.0 - - - - - - -
19/09:00pm 26.6 W 10 13 1009.7 - 0.0 - - - - - - -
19/08:30pm 27.2 W 9 13 1009.4 - 0.0 - - - - - - -
19/08:00pm 27.4 W 11 14 1009.0 - 0.0 - - - - - - -
19/07:30pm 27.9 WNW 12 16 1008.6 - 0.0 - - - - - - -
19/07:00pm 28.5 WNW 15 18 1008.1 - 0.0 - - - - - - -
19/06:30pm 29.4 WNW 14 17 1007.7 - 0.0 - - - - - - -
19/06:00pm 30.8 WNW 15 18 1007.1 - 0.0 - - - - - - -
19/05:30pm 31.6 WNW 14 17 1006.8 - 0.0 - - - - - - -
19/05:00pm 33.5 WNW 13 16 1006.5 - 0.0 - - - - - - -
19/04:30pm 34.2 NW 13 15 1006.4 - 0.0 - - - - - - -
19/04:00pm 36.0 WNW 13 17 1006.3 - 0.0 - - - - - - -
19/03:30pm 36.1 WNW 12 17 1006.4 - 0.0 - - - - - - -
19/03:00pm 37.1 WNW 11 15 1006.4 - 0.0 - - - - - - -
19/02:30pm 37.8 NW 9 13 1006.5 - 0.0 - - - - - - -
19/02:00pm 36.9 NW 10 15 1006.7 - 0.0 - - - - - - -
19/01:30pm 37.1 NNW 10 14 1007.1 - 0.0 - - - - - - -
19/01:00pm 36.3 NW 11 15 1007.5 - 0.0 - - - - - - -
19/12:30pm 35.7 NNW 11 15 1007.7 - 0.0 - - - - - - -
19/12:00pm 37.0 N 9 14 1007.8 - 0.0 - - - - - - -
19/11:30am 36.8 NNE 10 14 1008.2 - 0.0 - - - - - - -
19/11:00am 35.4 NNE 8 13 1008.4 - 0.0 - - - - - - -
19/10:30am 35.0 NNE 8 12 1008.8 - 0.0 - - - - - - -
19/10:00am 34.5 NE 4 8 1008.8 - 0.0 - - - - - - -
19/09:30am 34.2 NNE 6 8 1009.1 - 0.0 - - - - - - -
19/09:00am 31.6 NNW 3 6 1009.5 - 0.0 - - - - - - -
19/08:30am 30.1 WNW 3 5 1009.6 - 0.0 - - - - - - -
19/08:00am 28.1 WSW 5 7 1009.5 - 0.0 - - - - - - -
19/07:30am 26.8 W 6 8 1009.4 - 0.0 - - - - - - -
19/07:00am 25.0 W 7 8 1009.2 - 0.0 - - - - - - -
19/06:30am 23.6 W 9 11 1008.9 - 0.0 - - - - - - -
19/06:00am 22.2 W 7 9 1008.6 - 0.0 - - - - - - -
19/05:30am 21.4 W 7 9 1008.3 - 0.0 - - - - - - -
19/05:00am 21.7 W 8 10 1007.9 - 0.0 - - - - - - -
19/04:30am 21.9 W 9 11 1007.8 - 0.0 - - - - - - -
19/04:00am 22.3 W 9 11 1007.7 - 0.0 - - - - - - -
19/03:30am 22.5 W 8 9 1007.7 - 0.0 - - - - - - -
19/03:00am 23.0 W 8 10 1007.9 - 0.0 - - - - - - -
19/02:30am 23.3 W 9 10 1008.0 - 0.0 - - - - - - -
19/02:00am 23.9 W 9 13 1008.2 - 0.0 - - - - - - -
19/01:30am 24.3 W 10 14 1008.3 - 0.0 - - - - - - -
19/01:00am 24.4 WSW 14 17 1008.4 - 0.0 - - - - - - -
19/12:30am 24.6 WSW 15 19 1008.7 - 0.0 - - - - - - -
19/12:00am 24.7 W 12 16 1009.1 - 0.0 - - - - - - -
 
Date/Time
WST
Temp
°C
Wind Pressure Rain since
9am
mm
Weather Cloud Vis
km
Sea
Height
m
Swell
Dir  Spd
kts
Gust
kts
hPa Trend Height
m
Period
s
Dir
18/11:30pm 25.0 WSW 14 19 1009.3 - 0.0 - - - - - - -
18/11:00pm 25.2 WSW 17 25 1009.4 - 0.0 - - - - - - -
18/10:30pm 25.4 W 15 20 1009.4 - 0.0 - - - - - - -
18/10:00pm 25.5 W 15 21 1009.6 - 0.0 - - - - - - -
18/09:30pm 25.7 W 17 22 1009.6 - 0.0 - - - - - - -
18/09:00pm 26.1 W 18 24 1009.3 - 0.0 - - - - - - -
18/08:30pm 26.4 W 17 23 1008.9 - 0.0 - - - - - - -
18/08:00pm 26.7 W 15 25 1008.5 - 0.0 - - - - - - -
18/07:30pm 26.7 WNW 17 21 1008.3 - 0.0 - - - - - - -
18/07:00pm 27.4 WNW 17 22 1007.9 - 0.0 - - - - - - -
18/06:30pm 28.7 WNW 18 26 1007.3 - 0.0 - - - - - - -
18/06:00pm 30.2 WNW 17 23 1006.8 - 0.0 - - - - - - -
18/05:30pm 30.9 W 19 24 1006.5 - 0.0 - - - - - - -
18/05:00pm 32.0 W 18 23 1006.3 - 0.0 - - - - - - -
18/04:30pm 32.3 WNW 20 25 1006.4 - 0.0 - - - - - - -
18/04:00pm 33.0 WNW 20 26 1006.5 - 0.0 - - - - - - -
18/03:30pm 33.5 WNW 19 25 1006.7 - 0.0 - - - - - - -
18/03:00pm 34.0 WNW 20 26 1006.9 - 0.0 - - - - - - -
18/02:30pm 35.1 WNW 19 23 1007.2 - 0.0 - - - - - - -
18/02:00pm 34.4 WNW 17 22 1007.6 - 0.0 - - - - - - -
18/01:30pm 35.3 NW 16 20 1007.8 - 0.0 - - - - - - -
18/01:00pm 36.2 WNW 15 19 1007.8 - 0.0 - - - - - - -
18/12:53pm 35.6 WNW 12 19 1007.9 - 0.0 - - - - - - -
18/12:30pm 35.4 NW 10 15 1008.1 - 0.0 - - - - - - -
18/12:00pm 35.0 WSW 11 17 1008.4 - 0.0 - - - - - - -
18/11:30am 34.2 WSW 11 17 1008.8 - 0.0 - - - - - - -
18/11:00am 32.0 WSW 13 19 1009.5 - 0.0 - - - - - - -
18/10:30am 31.9 WSW 11 16 1009.9 - 0.0 - - - - - - -
18/10:00am 31.1 WSW 12 17 1010.1 - 0.0 - - - - - - -
18/09:30am 29.6 SW 10 15 1010.5 - 0.0 - - - - - - -
18/09:00am 29.3 SW 12 15 1010.6 - 0.0 - - - - - - -
18/08:30am 28.2 SW 13 18 1010.6 - 0.0 - - - - - - -
18/08:00am 28.3 SW 12 17 1010.5 - 0.0 - - - - - - -
18/07:30am 27.1 SW 13 19 1010.5 - 0.0 - - - - - - -
18/07:00am 25.8 SW 11 15 1010.3 - 0.0 - - - - - - -
18/06:30am 24.9 SW 9 12 1010.0 - 0.0 - - - - - - -
18/06:00am 23.6 SW 6 8 1009.7 - 0.0 - - - - - - -
18/05:30am 23.0 WSW 6 8 1009.5 - 0.0 - - - - - - -
18/05:00am 23.3 WSW 7 9 1009.2 - 0.0 - - - - - - -
18/04:30am 23.1 WSW 6 8 1009.0 - 0.0 - - - - - - -
18/04:00am 23.7 W 7 11 1009.0 - 0.0 - - - - - - -
18/03:30am 23.4 W 6 9 1009.1 - 0.0 - - - - - - -
18/03:00am 23.3 W 6 8 1008.9 - 0.0 - - - - - - -
18/02:30am 23.4 W 6 7 1008.9 - 0.0 - - - - - - -
18/02:00am 23.6 W 5 7 1008.8 - 0.0 - - - - - - -
18/01:30am 24.4 W 8 11 1009.0 - 0.0 - - - - - - -
18/01:00am 24.2 W 7 9 1009.3 - 0.0 - - - - - - -
18/12:30am 24.5 W 9 11 1009.5 - 0.0 - - - - - - -
18/12:00am 25.0 W 11 16 1009.7 - 0.0 - - - - - - -
 
Date/Time
WST
Temp
°C
Wind Pressure Rain since
9am
mm
Weather Cloud Vis
km
Sea
Height
m
Swell
Dir  Spd
kts
Gust
kts
hPa Trend Height
m
Period
s
Dir
17/11:30pm 25.0 W 11 14 1010.0 - 0.0 - - - - - - -
17/11:00pm 25.2 W 11 15 1010.4 - 0.0 - - - - - - -
17/10:30pm 25.4 W 13 16 1010.3 - 0.0 - - - - - - -
17/10:00pm 25.5 W 13 17 1010.1 - 0.0 - - - - - - -
17/09:30pm 25.7 W 12 16 1009.8 - 0.0 - - - - - - -
17/09:00pm 25.9 W 13 16 1009.5 - 0.0 - - - - - - -
17/08:30pm 26.0 W 15 19 1009.0 - 0.0 - - - - - - -
17/08:00pm 26.3 WNW 14 18 1008.8 - 0.0 - - - - - - -
17/07:30pm 26.6 WNW 15 19 1008.4 - 0.0 - - - - - - -
17/07:00pm 27.1 WNW 16 20 1008.0 - 0.0 - - - - - - -
17/06:30pm 27.9 WNW 14 19 1007.6 - 0.0 - - - - - - -
17/06:00pm 29.2 WNW 15 19 1007.2 - 0.0 - - - - - - -
17/05:30pm 30.6 WNW 16 21 1007.0 - 0.0 - - - - - - -
17/05:00pm 31.3 WNW 15 19 1006.6 - 0.0 - - - - - - -
17/04:30pm 32.2 WNW 15 21 1006.9 - 0.0 - - - - - - -
17/04:00pm 32.4 WNW 14 21 1006.8 - 0.0 - - - - - - -
17/03:30pm 32.7 WNW 15 21 1006.9 - 0.0 - - - - - - -
17/03:00pm 32.9 WNW 15 23 1006.8 - 0.0 - - - - - - -
17/02:30pm 32.8 WNW 15 21 1007.2 - 0.0 - - - - - - -
17/02:00pm 32.8 WNW 16 22 1007.5 - 0.0 - - - - - - -

Other Formats:

Comma delimited format used in spreadsheet applications
http://www.bom.gov.au/fwo/IDW60701/IDW60701.94308.axf

JavaScript Object Notation format (JSON) in row-major order
http://www.bom.gov.au/fwo/IDW60701/IDW60701.94308.json